Time;durP1;ratioP1;P1;durP2;ratioP2;P2;SDS_P1;SDS_P2;PMS_P1;PMS_P2;Temp;Humidity;BMP_temperature;BMP_pressure;BME280_temperature;BME280_humidity;BME280_pressure;Samples;Min_cycle;Max_cycle;Signal;HPM_P1;HPM_P2
2022/09/20 00:01:42;;;;;;;2.30;2.13;;;9.80;99.90;;;;;;5076724;28;20508;-76
2022/09/20 00:04:10;;;;;;;3.37;2.10;;;9.80;99.90;;;;;;5076668;28;20427;-78
2022/09/20 00:06:36;;;;;;;3.67;2.43;;;9.70;99.90;;;;;;5076556;28;20446;-76
2022/09/20 00:09:05;;;;;;;5.43;3.70;;;9.60;99.90;;;;;;5076842;28;20452;-76
2022/09/20 00:11:34;;;;;;;3.73;2.90;;;9.70;99.90;;;;;;5076797;28;20814;-76
2022/09/20 00:14:07;;;;;;;6.80;4.93;;;9.70;99.90;;;;;;5077074;28;20830;-76
2022/09/20 00:16:36;;;;;;;2.07;1.80;;;9.60;99.90;;;;;;5076603;28;20433;-77
2022/09/20 00:19:05;;;;;;;2.20;1.50;;;9.60;99.90;;;;;;5076580;28;20516;-76
2022/09/20 00:21:33;;;;;;;1.93;1.77;;;9.60;99.90;;;;;;5076372;28;20501;-77
2022/09/20 00:24:00;;;;;;;2.40;2.20;;;9.60;99.90;;;;;;5075994;28;20448;-77
2022/09/20 00:26:28;;;;;;;1.50;1.40;;;9.60;99.90;;;;;;5076433;28;20475;-77
2022/09/20 00:28:55;;;;;;;2.53;1.60;;;9.60;99.90;;;;;;5076446;28;20440;-77
2022/09/20 00:31:23;;;;;;;1.97;1.67;;;9.60;99.90;;;;;;5075921;28;20478;-77
2022/09/20 00:36:38;;;;;;;1.60;1.30;;;9.40;99.90;;;;;;5075970;28;20412;-77
2022/09/20 00:39:05;;;;;;;3.40;1.53;;;9.40;99.90;;;;;;5076122;28;20458;-77
2022/09/20 00:41:32;;;;;;;3.27;1.93;;;9.40;99.90;;;;;;5099266;22;21007;-79
2022/09/20 00:44:00;;;;;;;1.50;1.40;;;9.40;99.90;;;;;;5078897;28;20419;-80
2022/09/20 00:46:33;;;;;;;1.80;1.50;;;9.40;99.90;;;;;;5078616;28;20457;-79
2022/09/20 00:49:06;;;;;;;4.50;2.47;;;9.50;99.90;;;;;;5079371;28;20433;-80
2022/09/20 00:51:38;;;;;;;2.97;1.97;;;9.40;99.90;;;;;;5078252;28;20472;-79
2022/09/20 00:54:08;;;;;;;2.30;2.00;;;9.40;99.90;;;;;;5078593;28;20961;-79
2022/09/20 00:56:39;;;;;;;8.93;2.33;;;9.30;99.90;;;;;;5079033;28;20432;-78
2022/09/20 00:59:13;;;;;;;2.40;1.73;;;9.30;99.90;;;;;;5078329;28;20971;-80
2022/09/20 01:01:42;;;;;;;4.00;2.10;;;9.30;99.90;;;;;;5077827;28;20488;-80
2022/09/20 01:04:09;;;;;;;1.70;1.60;;;9.20;99.90;;;;;;5078539;28;20526;-80
2022/09/20 01:06:36;;;;;;;4.50;1.67;;;9.30;99.90;;;;;;5078014;28;20444;-80
2022/09/20 01:09:06;;;;;;;1.77;1.67;;;9.20;99.90;;;;;;5077663;28;20447;-80
2022/09/20 01:11:35;;;;;;;2.00;1.90;;;9.20;99.90;;;;;;5079021;28;20468;-80
2022/09/20 01:14:01;;;;;;;5.50;1.97;;;9.30;99.90;;;;;;5083700;28;20455;-78
2022/09/20 01:16:30;;;;;;;2.90;1.67;;;9.20;99.90;;;;;;5091792;28;20465;-79
2022/09/20 01:19:02;;;;;;;1.73;1.63;;;9.20;99.90;;;;;;5087299;28;20476;-78
2022/09/20 01:21:29;;;;;;;2.17;1.97;;;9.10;99.90;;;;;;5083042;28;20491;-79
2022/09/20 01:24:04;;;;;;;2.00;1.40;;;9.10;99.90;;;;;;5082278;28;20445;-79
2022/09/20 01:26:54;;;;;;;2.10;1.90;;;9.00;99.90;;;;;;5082869;28;20432;-78
2022/09/20 01:29:41;;;;;;;3.83;1.60;;;9.00;99.90;;;;;;5081189;28;20462;-79
2022/09/20 01:32:12;;;;;;;2.50;2.30;;;9.10;99.90;;;;;;5081087;28;20468;-79
2022/09/20 01:34:45;;;;;;;1.67;1.57;;;9.20;99.90;;;;;;5080693;28;20446;-79
2022/09/20 01:37:19;;;;;;;1.60;1.50;;;9.20;99.90;;;;;;5080529;28;20463;-81
2022/09/20 01:39:54;;;;;;;4.63;2.90;;;9.20;99.90;;;;;;5078794;28;20473;-79
2022/09/20 01:42:27;;;;;;;3.47;2.17;;;9.20;99.90;;;;;;5080394;28;20471;-79
2022/09/20 01:45:02;;;;;;;2.20;1.83;;;9.10;99.90;;;;;;5078175;28;20455;-79
2022/09/20 01:47:36;;;;;;;3.93;1.70;;;9.20;99.90;;;;;;5077608;28;20442;-79
2022/09/20 01:50:13;;;;;;;2.97;1.53;;;9.10;99.90;;;;;;5077651;28;20425;-79
2022/09/20 01:53:03;;;;;;;4.20;1.67;;;9.20;99.90;;;;;;5081316;28;20438;-77
2022/09/20 01:55:57;;;;;;;3.20;1.70;;;9.10;99.90;;;;;;5085536;28;20466;-79
2022/09/20 01:59:17;;;;;;;5.03;1.63;;;9.10;99.90;;;;;;5078089;28;20908;-78
2022/09/20 02:02:23;;;;;;;2.03;1.30;;;9.20;99.90;;;;;;5084552;28;20467;-77
2022/09/20 02:05:12;;;;;;;2.13;1.80;;;9.20;99.90;;;;;;5081914;28;20462;-80
2022/09/20 02:08:06;;;;;;;1.60;1.33;;;9.20;99.90;;;;;;5078255;28;20432;-79
2022/09/20 02:10:58;;;;;;;1.97;1.67;;;9.30;99.90;;;;;;5078185;28;20490;-79
2022/09/20 02:13:30;;;;;;;1.70;1.60;;;9.20;99.90;;;;;;5077127;28;20435;-80
2022/09/20 02:16:24;;;;;;;3.73;1.57;;;9.20;99.90;;;;;;5086887;28;20455;-78
2022/09/20 02:19:11;;;;;;;1.50;1.40;;;9.10;99.90;;;;;;5088365;28;20476;-80
2022/09/20 02:21:44;;;;;;;2.30;1.40;;;9.10;99.90;;;;;;5084562;28;20446;-78
2022/09/20 02:24:22;;;;;;;5.47;1.80;;;9.10;99.90;;;;;;5079843;28;20489;-80
2022/09/20 02:27:02;;;;;;;2.50;1.53;;;9.10;99.90;;;;;;5076890;28;20814;-79
2022/09/20 02:29:41;;;;;;;1.70;1.60;;;9.10;99.90;;;;;;5082813;28;20439;-78
2022/09/20 02:32:25;;;;;;;2.03;1.80;;;9.10;99.90;;;;;;5086872;28;20483;-77
2022/09/20 02:35:09;;;;;;;2.60;2.40;;;9.00;99.90;;;;;;5085772;28;20434;-78
2022/09/20 02:37:53;;;;;;;2.03;1.80;;;9.10;99.90;;;;;;5083745;28;20398;-77
2022/09/20 02:40:27;;;;;;;3.23;1.47;;;9.10;99.90;;;;;;5092012;28;20467;-77
2022/09/20 02:43:02;;;;;;;1.60;1.50;;;9.10;99.90;;;;;;5091444;28;20476;-78
2022/09/20 02:45:35;;;;;;;1.60;1.50;;;9.10;99.90;;;;;;5091778;28;20421;-77
2022/09/20 02:48:04;;;;;;;1.47;1.37;;;9.20;99.90;;;;;;5086132;28;20507;-79
2022/09/20 02:50:41;;;;;;;2.47;1.70;;;9.20;99.90;;;;;;5078259;28;20450;-80
2022/09/20 02:53:17;;;;;;;2.13;1.37;;;9.30;99.90;;;;;;5076309;28;20425;-80
2022/09/20 02:55:51;;;;;;;1.70;1.60;;;9.30;99.90;;;;;;5077286;28;20459;-79
2022/09/20 02:58:28;;;;;;;1.70;1.60;;;9.30;99.90;;;;;;5076430;28;20432;-80
2022/09/20 03:01:03;;;;;;;1.87;1.40;;;9.30;99.90;;;;;;5076340;28;20486;-80
2022/09/20 03:03:40;;;;;;;2.53;2.33;;;9.20;99.90;;;;;;5076240;28;20432;-78
2022/09/20 03:06:17;;;;;;;2.07;1.90;;;9.30;99.90;;;;;;5091463;28;20432;-77
2022/09/20 03:08:50;;;;;;;1.87;1.77;;;9.30;99.90;;;;;;5094236;28;20432;-77
2022/09/20 03:11:29;;;;;;;2.70;1.87;;;9.30;99.90;;;;;;5088534;28;20478;-79
2022/09/20 03:14:13;;;;;;;1.73;1.63;;;9.20;99.90;;;;;;5077366;28;20779;-81
2022/09/20 03:17:02;;;;;;;1.70;1.60;;;9.20;99.90;;;;;;5076234;28;20432;-80
2022/09/20 03:19:42;;;;;;;1.93;1.47;;;9.30;99.90;;;;;;5075960;28;20468;-79
2022/09/20 03:22:19;;;;;;;1.50;1.40;;;9.30;99.90;;;;;;5076214;28;20528;-79
2022/09/20 03:24:59;;;;;;;3.33;1.90;;;9.30;99.90;;;;;;5076441;28;20449;-79
2022/09/20 03:27:31;;;;;;;2.50;2.30;;;9.30;99.90;;;;;;5075496;28;20484;-80
2022/09/20 03:30:19;;;;;;;2.40;1.63;;;9.30;99.90;;;;;;5078498;28;20433;-79
2022/09/20 03:32:58;;;;;;;2.93;1.80;;;9.30;99.90;;;;;;5079991;28;20467;-79
2022/09/20 03:35:38;;;;;;;4.73;1.70;;;9.30;99.90;;;;;;5080084;28;20410;-79
2022/09/20 03:38:21;;;;;;;2.67;1.60;;;9.30;99.90;;;;;;5080480;28;20438;-80
2022/09/20 03:41:10;;;;;;;2.30;2.10;;;9.30;99.90;;;;;;5080400;28;20825;-79
2022/09/20 03:43:52;;;;;;;2.70;2.50;;;9.30;99.90;;;;;;5087593;28;20494;-79
2022/09/20 03:46:25;;;;;;;2.00;1.90;;;9.30;99.90;;;;;;5082402;28;20403;-78
2022/09/20 03:49:46;;;;;;;7.40;3.50;;;9.40;99.90;;;;;;5080692;28;20433;-78
2022/09/20 03:52:28;;;;;;;3.47;3.17;;;9.50;99.90;;;;;;5056498;28;20856;-79
2022/09/20 03:55:34;;;;;;;1.80;1.70;;;9.50;99.90;;;;;;5080042;28;20442;-80
2022/09/20 03:58:12;;;;;;;1.77;1.67;;;9.50;99.90;;;;;;5012789;28;20215;-78
2022/09/20 04:00:58;;;;;;;2.10;1.90;;;9.80;99.90;;;;;;5088825;28;20489;-79
2022/09/20 04:03:36;;;;;;;4.80;1.60;;;9.60;99.90;;;;;;5080234;28;20441;-79
2022/09/20 04:06:16;;;;;;;1.97;1.33;;;9.60;99.90;;;;;;5079834;28;20436;-79
2022/09/20 04:09:00;;;;;;;1.80;1.70;;;9.60;99.90;;;;;;5079358;28;20919;-79
2022/09/20 04:11:34;;;;;;;2.80;1.80;;;9.70;99.90;;;;;;5079297;28;20472;-79
2022/09/20 04:14:11;;;;;;;3.57;2.13;;;9.60;99.90;;;;;;5079853;28;20821;-78
2022/09/20 04:16:44;;;;;;;1.87;1.70;;;9.70;99.90;;;;;;5085181;28;20481;-79
2022/09/20 04:19:21;;;;;;;2.17;1.70;;;9.70;99.90;;;;;;5079697;28;20429;-79
2022/09/20 04:21:54;;;;;;;2.03;1.90;;;9.70;99.90;;;;;;5079796;28;20467;-79
2022/09/20 04:24:29;;;;;;;1.60;1.40;;;9.70;99.90;;;;;;5078893;28;20929;-78
2022/09/20 04:27:00;;;;;;;3.53;1.80;;;9.80;99.90;;;;;;5079130;28;20794;-78
2022/09/20 04:29:34;;;;;;;3.00;2.60;;;9.80;99.90;;;;;;5079049;28;20436;-79
2022/09/20 04:32:12;;;;;;;1.90;1.80;;;9.80;99.90;;;;;;5079417;28;20463;-80
2022/09/20 04:37:33;;;;;;;2.80;1.97;;;9.70;99.90;;;;;;5095139;28;20467;-77
2022/09/20 04:40:13;;;;;;;4.60;2.20;;;9.70;99.90;;;;;;5094609;28;20843;-77
2022/09/20 04:43:23;;;;;;;2.87;2.07;;;9.80;99.90;;;;;;5093535;28;20468;-78
2022/09/20 04:46:23;;;;;;;2.20;2.00;;;9.70;99.90;;;;;;5094180;28;20432;-78
2022/09/20 04:49:26;;;;;;;3.03;2.73;;;9.70;99.90;;;;;;5092269;28;20973;-78
2022/09/20 04:52:19;;;;;;;2.33;1.93;;;9.70;99.90;;;;;;5077621;28;20485;-77
2022/09/20 04:55:15;;;;;;;1.90;1.80;;;9.70;99.90;;;;;;5084405;28;20477;-79
2022/09/20 04:58:12;;;;;;;2.20;1.70;;;9.60;99.90;;;;;;5080033;28;20510;-79
2022/09/20 05:00:56;;;;;;;2.80;2.33;;;9.90;99.90;;;;;;5082153;28;20819;-78
2022/09/20 05:03:55;;;;;;;2.57;2.37;;;9.70;99.90;;;;;;5085365;28;20456;-79
2022/09/20 05:06:52;;;;;;;4.70;1.97;;;9.70;99.90;;;;;;5085293;28;20445;-80
2022/09/20 05:09:51;;;;;;;3.40;2.10;;;9.80;99.90;;;;;;5081010;28;20428;-79
2022/09/20 05:12:37;;;;;;;2.37;2.17;;;9.80;99.90;;;;;;5079570;28;20427;-79
2022/09/20 05:15:35;;;;;;;3.90;3.50;;;9.80;99.90;;;;;;5079579;28;20444;-81
2022/09/20 05:18:33;;;;;;;2.10;1.90;;;9.80;99.90;;;;;;5079472;28;20504;-79
2022/09/20 05:21:33;;;;;;;2.87;2.67;;;9.90;99.90;;;;;;5078402;28;20483;-80
2022/09/20 05:24:20;;;;;;;2.50;2.30;;;9.90;99.90;;;;;;5078296;28;20907;-78
2022/09/20 05:26:58;;;;;;;3.67;2.83;;;9.90;99.90;;;;;;5077839;28;20440;-80
2022/09/20 05:29:29;;;;;;;2.27;2.07;;;9.90;99.90;;;;;;5077974;28;20430;-80
2022/09/20 05:32:03;;;;;;;3.30;2.60;;;10.00;99.90;;;;;;5081151;28;20500;-80
2022/09/20 05:34:41;;;;;;;3.67;2.00;;;10.00;99.90;;;;;;5080350;28;20486;-80
2022/09/20 05:37:16;;;;;;;6.40;3.17;;;10.00;99.90;;;;;;5078384;28;20468;-79
2022/09/20 05:39:52;;;;;;;4.43;2.80;;;10.00;99.90;;;;;;5077652;28;20478;-79
2022/09/20 05:42:22;;;;;;;3.13;2.83;;;10.00;99.90;;;;;;5077090;28;21042;-79
2022/09/20 05:45:04;;;;;;;3.00;2.77;;;10.00;99.90;;;;;;5078989;28;20433;-79
2022/09/20 05:47:43;;;;;;;3.53;2.83;;;10.10;99.90;;;;;;5082667;28;20403;-77
2022/09/20 05:50:29;;;;;;;4.40;2.90;;;10.20;99.90;;;;;;5079012;28;20428;-79
2022/09/20 05:53:02;;;;;;;2.80;2.60;;;10.20;99.90;;;;;;5077410;28;20460;-79
2022/09/20 05:55:56;;;;;;;9.97;2.37;;;10.20;99.90;;;;;;5078543;28;20532;-80
2022/09/20 05:58:35;;;;;;;4.60;2.30;;;10.30;99.90;;;;;;5077702;28;20433;-80
2022/09/20 06:01:08;;;;;;;3.50;3.13;;;10.30;99.90;;;;;;5078335;28;20921;-79
2022/09/20 06:03:41;;;;;;;2.47;2.20;;;10.40;99.90;;;;;;5089462;28;20446;-78
2022/09/20 06:06:13;;;;;;;3.30;2.73;;;10.40;99.90;;;;;;5081528;28;20433;-79
2022/09/20 06:09:06;;;;;;;5.57;2.17;;;10.50;99.90;;;;;;5078200;28;20820;-79
2022/09/20 06:11:51;;;;;;;2.43;2.23;;;10.50;99.90;;;;;;5077913;28;20440;-79
2022/09/20 06:14:27;;;;;;;1.83;1.73;;;10.50;99.90;;;;;;5078092;28;20445;-80
2022/09/20 06:17:02;;;;;;;2.50;2.30;;;10.60;99.90;;;;;;5080664;28;20428;-78
2022/09/20 06:19:35;;;;;;;3.50;2.30;;;10.60;99.90;;;;;;5085203;28;20424;-79
2022/09/20 06:22:11;;;;;;;2.27;2.07;;;10.70;99.90;;;;;;5087083;28;20478;-78
2022/09/20 06:24:44;;;;;;;3.53;2.53;;;10.80;99.90;;;;;;5080510;28;20890;-80
2022/09/20 06:27:18;;;;;;;2.77;2.57;;;10.80;99.90;;;;;;5080300;28;20436;-79
2022/09/20 06:29:51;;;;;;;3.30;2.97;;;10.70;99.90;;;;;;5077921;28;20470;-79
2022/09/20 06:32:18;;;;;;;2.10;1.90;;;10.80;99.90;;;;;;5077124;28;20828;-79
2022/09/20 06:34:46;;;;;;;3.27;3.00;;;10.90;99.90;;;;;;5077288;28;20419;-79
2022/09/20 06:43:13;;;;;;;2.03;1.93;;;11.30;99.90;;;;;;5089576;22;20462;-78
2022/09/20 06:45:40;;;;;;;2.20;2.00;;;11.10;99.90;;;;;;5076314;28;20452;-78
2022/09/20 06:48:07;;;;;;;4.70;2.30;;;11.10;99.90;;;;;;5076693;28;20471;-78
2022/09/20 06:50:35;;;;;;;2.00;1.63;;;11.10;99.90;;;;;;5081710;28;20448;-78
2022/09/20 06:53:02;;;;;;;2.10;2.00;;;11.20;99.90;;;;;;5075222;28;20468;-78
2022/09/20 06:55:33;;;;;;;2.20;1.97;;;11.20;99.90;;;;;;5081248;28;20451;-78
2022/09/20 06:58:00;;;;;;;1.93;1.83;;;11.30;99.90;;;;;;5082515;28;20436;-77
2022/09/20 07:00:29;;;;;;;2.93;2.00;;;11.30;99.90;;;;;;5087051;28;20480;-77
2022/09/20 07:02:55;;;;;;;4.30;3.17;;;11.40;99.90;;;;;;5089102;28;20476;-78
2022/09/20 07:05:23;;;;;;;2.73;1.73;;;11.30;99.90;;;;;;5089713;28;20472;-78
2022/09/20 07:07:50;;;;;;;2.03;1.80;;;11.30;99.90;;;;;;5086791;28;20456;-77
2022/09/20 07:10:16;;;;;;;2.30;2.13;;;11.30;99.90;;;;;;5086334;28;20456;-77
2022/09/20 07:12:43;;;;;;;6.20;1.83;;;11.30;99.90;;;;;;5087776;28;20475;-77
2022/09/20 07:15:11;;;;;;;5.20;2.57;;;11.40;99.90;;;;;;5085520;28;20415;-78
2022/09/20 07:17:39;;;;;;;2.00;1.90;;;11.20;99.90;;;;;;5076460;28;20452;-79
2022/09/20 07:20:06;;;;;;;1.80;1.70;;;11.20;99.90;;;;;;5077646;28;20602;-78
2022/09/20 07:22:33;;;;;;;2.50;2.27;;;11.00;99.90;;;;;;5076585;28;20469;-78
2022/09/20 07:25:01;;;;;;;2.40;2.20;;;11.10;99.90;;;;;;5075638;28;20445;-78
2022/09/20 07:27:28;;;;;;;4.93;2.70;;;11.10;99.90;;;;;;5075069;28;20793;-77
2022/09/20 07:29:55;;;;;;;2.90;2.20;;;11.10;99.90;;;;;;5075927;28;20479;-78
2022/09/20 07:32:22;;;;;;;2.83;2.53;;;11.00;99.90;;;;;;5082786;28;20472;-77
2022/09/20 07:34:50;;;;;;;2.77;2.40;;;11.00;99.90;;;;;;5082139;28;20445;-78
2022/09/20 07:37:18;;;;;;;2.90;2.60;;;10.80;99.90;;;;;;5084508;28;20494;-77
2022/09/20 07:39:45;;;;;;;4.50;1.90;;;10.80;99.90;;;;;;5087947;28;20535;-77
2022/09/20 07:42:12;;;;;;;4.13;2.97;;;10.90;99.90;;;;;;5078516;28;20575;-78
2022/09/20 07:44:41;;;;;;;6.70;2.50;;;11.00;99.90;;;;;;5077561;28;20415;-79
2022/09/20 07:47:10;;;;;;;3.80;2.77;;;11.10;99.90;;;;;;5075134;28;20427;-79
2022/09/20 07:49:37;;;;;;;4.10;2.47;;;11.10;99.90;;;;;;5075401;28;20955;-79
2022/09/20 07:52:06;;;;;;;2.17;2.03;;;11.10;99.90;;;;;;5074381;28;20469;-79
2022/09/20 07:54:34;;;;;;;3.60;2.97;;;11.40;99.90;;;;;;5074601;28;20449;-78
2022/09/20 07:57:04;;;;;;;3.53;2.77;;;11.30;99.90;;;;;;5074932;28;20459;-79
2022/09/20 07:59:31;;;;;;;2.73;2.20;;;11.40;99.90;;;;;;5074383;28;20449;-78
2022/09/20 08:01:59;;;;;;;5.17;2.33;;;11.50;99.90;;;;;;5075034;28;20520;-78
2022/09/20 08:04:26;;;;;;;3.70;2.77;;;11.50;99.90;;;;;;5073797;28;20444;-77
2022/09/20 08:06:53;;;;;;;2.60;2.20;;;11.60;99.90;;;;;;5074194;28;20456;-77
2022/09/20 08:09:21;;;;;;;2.63;2.43;;;11.70;99.90;;;;;;5075450;28;20440;-79
2022/09/20 08:11:48;;;;;;;5.00;2.30;;;11.70;99.90;;;;;;5073953;28;20464;-78
2022/09/20 08:14:16;;;;;;;4.43;2.40;;;11.80;99.90;;;;;;5074342;28;20539;-78
2022/09/20 08:16:45;;;;;;;2.30;2.10;;;11.80;99.90;;;;;;5076523;28;20445;-78
2022/09/20 08:19:16;;;;;;;2.20;2.00;;;11.80;99.90;;;;;;5077652;28;20459;-78
2022/09/20 08:21:43;;;;;;;3.27;2.57;;;11.90;99.90;;;;;;5080336;28;20488;-78
2022/09/20 08:24:10;;;;;;;3.43;2.47;;;12.00;99.90;;;;;;5081164;28;20476;-78
2022/09/20 08:26:38;;;;;;;4.50;2.80;;;12.10;99.90;;;;;;5080933;28;20448;-79
2022/09/20 08:29:06;;;;;;;11.27;2.53;;;12.20;99.90;;;;;;5083841;28;20505;-77
2022/09/20 08:31:37;;;;;;;3.93;2.93;;;12.20;99.90;;;;;;5080184;28;20468;-77
2022/09/20 08:34:22;;;;;;;2.40;2.20;;;12.30;99.90;;;;;;5079414;28;20535;-77
2022/09/20 08:36:51;;;;;;;4.07;2.37;;;14.00;99.90;;;;;;5081287;28;20405;-77
2022/09/20 08:39:19;;;;;;;8.63;4.53;;;12.40;99.90;;;;;;5082626;28;20444;-78
2022/09/20 08:41:53;;;;;;;3.57;3.23;;;13.60;99.90;;;;;;5083727;28;20492;-78
2022/09/20 08:44:25;;;;;;;4.17;2.40;;;12.50;99.90;;;;;;5078779;28;20745;-78
2022/09/20 08:47:04;;;;;;;4.53;2.37;;;12.70;99.90;;;;;;5077793;28;20899;-78
2022/09/20 08:49:31;;;;;;;10.90;2.90;;;12.60;99.90;;;;;;5077102;28;20432;-78
2022/09/20 08:52:01;;;;;;;2.30;2.10;;;12.70;99.90;;;;;;5078174;28;20852;-78
2022/09/20 08:54:32;;;;;;;2.90;2.23;;;12.80;99.90;;;;;;5077163;28;20420;-77
2022/09/20 08:57:04;;;;;;;4.33;2.30;;;12.40;99.90;;;;;;5076509;28;20445;-78
2022/09/20 08:59:32;;;;;;;3.33;2.20;;;12.90;99.90;;;;;;5077087;28;20429;-78
2022/09/20 09:02:00;;;;;;;7.10;2.60;;;13.00;99.90;;;;;;5076728;28;20511;-78
2022/09/20 09:04:34;;;;;;;3.07;2.70;;;13.00;99.90;;;;;;5076331;28;20449;-78
2022/09/20 09:07:01;;;;;;;3.07;2.77;;;13.00;99.90;;;;;;5078913;28;20444;-78
2022/09/20 09:09:29;;;;;;;3.00;1.73;;;13.00;99.90;;;;;;5076372;28;20543;-78
2022/09/20 09:11:58;;;;;;;4.60;2.50;;;13.00;99.90;;;;;;5076310;28;20537;-78
2022/09/20 09:17:14;;;;;;;2.30;2.10;;;13.10;99.90;;;;;;5076274;28;20502;-78
2022/09/20 09:19:47;;;;;;;4.20;3.17;;;13.20;99.90;;;;;;5077214;28;20452;-77
2022/09/20 09:22:19;;;;;;;2.20;2.10;;;13.20;99.90;;;;;;5075255;28;20489;-77
2022/09/20 09:25:02;;;;;;;8.30;3.90;;;13.20;99.90;;;;;;5076512;28;20513;-77
2022/09/20 09:27:29;;;;;;;7.87;3.00;;;13.30;99.90;;;;;;5074897;28;20931;-76
2022/09/20 09:29:57;;;;;;;3.13;2.70;;;13.40;99.90;;;;;;5075444;28;20460;-77
2022/09/20 09:32:27;;;;;;;7.03;2.87;;;13.40;99.90;;;;;;5075438;28;20456;-77
2022/09/20 09:34:54;;;;;;;2.63;2.43;;;13.60;99.90;;;;;;5075804;28;20433;-77
2022/09/20 09:37:27;;;;;;;2.20;2.10;;;13.60;99.90;;;;;;5075736;28;20459;-77
2022/09/20 09:40:15;;;;;;;5.57;3.60;;;13.60;99.90;;;;;;5075968;28;20535;-77
2022/09/20 09:42:49;;;;;;;3.43;2.40;;;13.60;99.90;;;;;;5074866;28;21011;-77
2022/09/20 09:45:29;;;;;;;3.30;1.90;;;13.70;99.90;;;;;;5076480;28;20442;-77
2022/09/20 09:47:56;;;;;;;2.33;2.13;;;13.70;99.90;;;;;;5076577;28;20424;-77
2022/09/20 09:50:25;;;;;;;4.40;1.60;;;13.70;99.90;;;;;;5075695;28;20448;-78
2022/09/20 09:53:01;;;;;;;3.03;2.67;;;13.70;99.90;;;;;;5075923;28;20469;-78
2022/09/20 09:55:38;;;;;;;3.03;2.40;;;13.80;99.90;;;;;;5075623;28;20845;-78
2022/09/20 09:58:13;;;;;;;2.23;2.03;;;13.90;99.90;;;;;;5075414;28;20467;-78
2022/09/20 10:00:45;;;;;;;2.77;2.57;;;14.00;99.90;;;;;;5075259;28;20490;-78
2022/09/20 10:03:30;;;;;;;3.33;2.40;;;14.00;99.90;;;;;;5074766;28;20469;-78
2022/09/20 10:06:07;;;;;;;5.77;3.83;;;14.00;99.90;;;;;;5075157;28;20516;-78
2022/09/20 10:08:43;;;;;;;3.23;2.93;;;14.00;99.90;;;;;;5075135;28;20495;-78
2022/09/20 10:11:22;;;;;;;5.83;3.50;;;14.20;99.90;;;;;;5074957;28;20425;-77
2022/09/20 10:13:57;;;;;;;7.00;3.70;;;14.00;99.90;;;;;;5074921;28;20433;-78
2022/09/20 10:16:37;;;;;;;3.40;3.20;;;14.10;99.90;;;;;;5074759;28;20438;-78
2022/09/20 10:19:12;;;;;;;3.47;3.17;;;14.20;99.90;;;;;;5079750;28;20425;-77
2022/09/20 10:21:49;;;;;;;2.10;2.00;;;14.20;99.90;;;;;;5084106;28;20534;-77
2022/09/20 10:24:29;;;;;;;3.70;2.63;;;14.20;99.90;;;;;;5085903;28;20441;-77
2022/09/20 10:27:13;;;;;;;3.97;3.60;;;14.20;99.90;;;;;;5084717;28;20436;-78
2022/09/20 10:29:56;;;;;;;4.07;3.00;;;14.20;99.90;;;;;;5074838;28;20444;-78
2022/09/20 10:32:46;;;;;;;10.00;4.47;;;14.20;99.90;;;;;;5074689;28;20529;-78
2022/09/20 10:35:22;;;;;;;7.77;5.50;;;14.10;99.90;;;;;;5074508;28;20584;-78
2022/09/20 10:38:02;;;;;;;5.20;4.20;;;14.00;99.90;;;;;;5074248;28;20814;-78
2022/09/20 10:43:31;;;;;;;5.13;2.80;;;14.10;99.90;;;;;;5073301;28;20828;-77
2022/09/20 10:46:11;;;;;;;3.80;3.10;;;14.30;99.90;;;;;;5075245;28;20436;-78
2022/09/20 10:48:42;;;;;;;2.90;2.70;;;14.50;99.90;;;;;;5075911;28;20417;-78
2022/09/20 10:51:17;;;;;;;4.90;1.97;;;14.50;99.90;;;;;;5077185;28;20433;-78
2022/09/20 10:53:55;;;;;;;2.70;2.50;;;14.80;99.90;;;;;;5075207;28;20849;-78
2022/09/20 10:56:28;;;;;;;4.03;2.10;;;14.80;99.90;;;;;;5075475;28;20440;-78
2022/09/20 10:59:21;;;;;;;6.70;3.53;;;14.70;99.90;;;;;;5080807;28;20422;-77
2022/09/20 11:02:02;;;;;;;4.57;3.60;;;14.50;99.90;;;;;;5080671;28;20572;-78
2022/09/20 11:04:54;;;;;;;5.47;3.17;;;14.30;99.90;;;;;;5081887;28;20437;-77
2022/09/20 11:07:34;;;;;;;4.90;3.70;;;13.90;99.90;;;;;;5078370;28;20425;-77
2022/09/20 11:10:06;;;;;;;5.73;3.50;;;13.60;99.90;;;;;;5078395;28;20864;-77
2022/09/20 11:12:41;;;;;;;4.17;3.77;;;13.40;99.90;;;;;;5080684;28;20460;-77
2022/09/20 11:15:21;;;;;;;5.07;4.20;;;13.20;99.90;;;;;;5083965;28;20520;-78
2022/09/20 11:18:04;;;;;;;4.53;3.50;;;13.20;99.90;;;;;;5081563;28;20435;-78
2022/09/20 11:20:37;;;;;;;7.30;3.23;;;13.00;99.90;;;;;;5081093;28;20433;-78
2022/09/20 11:23:13;;;;;;;3.70;3.20;;;13.00;99.90;;;;;;5082559;28;20484;-78
2022/09/20 11:25:50;;;;;;;5.53;3.27;;;13.00;99.90;;;;;;5090350;28;20440;-79
2022/09/20 11:28:24;;;;;;;4.27;2.33;;;12.80;99.90;;;;;;5088248;28;20435;-77
2022/09/20 11:30:56;;;;;;;1.60;1.50;;;12.30;99.90;;;;;;5085158;28;20433;-78
2022/09/20 11:33:28;;;;;;;2.90;2.47;;;11.90;99.90;;;;;;5074625;28;20464;-80
2022/09/20 11:36:00;;;;;;;1.67;1.20;;;10.90;99.90;;;;;;5075899;28;20433;-78
2022/09/20 11:38:32;;;;;;;4.77;1.40;;;10.90;99.90;;;;;;5075526;28;20404;-79
2022/09/20 11:41:04;;;;;;;2.63;1.17;;;10.50;99.90;;;;;;5075611;28;20417;-79
2022/09/20 11:43:32;;;;;;;2.20;1.73;;;10.20;99.90;;;;;;5075023;28;20876;-79
2022/09/20 11:46:04;;;;;;;4.60;3.13;;;10.20;99.90;;;;;;5074809;28;20452;-78
2022/09/20 11:48:36;;;;;;;3.23;2.93;;;10.30;99.90;;;;;;5074365;28;20440;-79
2022/09/20 11:51:33;;;;;;;3.63;1.97;;;10.00;99.90;;;;;;5075959;28;20442;-77
2022/09/20 11:54:24;;;;;;;2.13;1.63;;;10.30;99.90;;;;;;5078326;28;20444;-80
2022/09/20 11:56:55;;;;;;;1.70;1.53;;;10.30;99.90;;;;;;5078660;28;20903;-79
2022/09/20 11:59:30;;;;;;;2.00;1.80;;;10.40;99.90;;;;;;5078789;28;20438;-79
2022/09/20 12:02:00;;;;;;;3.67;2.03;;;10.50;99.90;;;;;;5078261;28;20848;-79
2022/09/20 12:04:29;;;;;;;1.97;1.77;;;10.50;99.90;;;;;;5077972;28;20866;-79
2022/09/20 12:07:01;;;;;;;2.27;2.10;;;10.60;99.90;;;;;;5077915;28;20452;-78
2022/09/20 12:09:33;;;;;;;4.57;1.90;;;10.60;99.90;;;;;;5077526;28;20919;-78
2022/09/20 12:12:13;;;;;;;2.70;2.50;;;10.70;99.90;;;;;;5077698;28;20457;-79
2022/09/20 12:14:40;;;;;;;4.00;2.40;;;10.70;99.90;;;;;;5077490;28;20430;-79
2022/09/20 12:17:48;;;;;;;2.90;2.20;;;10.80;99.90;;;;;;5077810;28;20502;-79
2022/09/20 12:21:01;;;;;;;2.70;2.57;;;11.00;99.90;;;;;;5077276;28;20477;-79
2022/09/20 12:24:00;;;;;;;5.30;2.67;;;11.10;99.90;;;;;;5015594;28;20481;-79
2022/09/20 12:26:39;;;;;;;8.27;3.03;;;11.30;99.90;;;;;;5015745;28;20973;-79
2022/09/20 12:29:51;;;;;;;3.90;3.30;;;11.50;99.90;;;;;;5067696;28;20798;-78
2022/09/20 12:32:42;;;;;;;4.70;4.23;;;11.70;99.90;;;;;;5077509;28;20507;-78
2022/09/20 12:35:58;;;;;;;8.97;5.00;;;12.00;99.90;;;;;;5082649;28;20436;-78
2022/09/20 12:38:47;;;;;;;7.43;5.17;;;12.20;99.90;;;;;;5065824;28;20440;-78
2022/09/20 12:41:17;;;;;;;7.03;5.17;;;12.70;99.90;;;;;;5070123;28;20548;-78
2022/09/20 12:43:54;;;;;;;7.70;5.20;;;12.60;99.90;;;;;;5078312;28;20464;-78
2022/09/20 12:46:34;;;;;;;5.80;4.60;;;12.70;99.90;;;;;;5078615;28;20614;-78
2022/09/20 12:55:11;;;;;;;4.80;3.83;;;13.00;99.90;;;;;;5091652;28;20432;-78
2022/09/20 12:57:39;;;;;;;3.87;3.20;;;13.00;99.90;;;;;;5092343;28;20463;-77
2022/09/20 13:00:32;;;;;;;2.60;2.40;;;13.20;99.90;;;;;;5085600;28;20441;-78
2022/09/20 13:03:00;;;;;;;4.03;3.33;;;13.10;99.90;;;;;;5078163;28;20567;-78
2022/09/20 13:05:36;;;;;;;4.20;3.87;;;12.90;99.90;;;;;;5078697;28;20453;-78
2022/09/20 13:08:14;;;;;;;4.73;3.37;;;12.90;99.90;;;;;;5077886;28;20919;-78
2022/09/20 13:10:45;;;;;;;2.03;1.93;;;12.90;99.90;;;;;;5079817;28;20449;-77
2022/09/20 13:13:34;;;;;;;5.73;1.60;;;12.50;99.90;;;;;;5079330;28;20465;-77
2022/09/20 13:16:04;;;;;;;4.60;1.20;;;12.40;99.90;;;;;;5086472;28;20428;-77
2022/09/20 13:18:32;;;;;;;1.70;1.27;;;12.20;99.90;;;;;;5084881;28;20444;-79
2022/09/20 13:21:05;;;;;;;1.13;1.03;;;12.00;99.90;;;;;;5086812;28;20521;-78
2022/09/20 13:23:35;;;;;;;1.83;1.00;;;11.80;99.90;;;;;;5080760;28;20471;-78
2022/09/20 13:26:04;;;;;;;1.40;1.00;;;11.70;99.90;;;;;;5078471;28;20447;-79
2022/09/20 13:28:37;;;;;;;1.47;1.00;;;11.60;99.90;;;;;;5077656;28;20940;-78
2022/09/20 13:31:34;;;;;;;0.90;0.90;;;11.40;99.90;;;;;;5077876;28;20537;-78
2022/09/20 13:34:21;;;;;;;0.83;0.83;;;11.50;99.90;;;;;;5015550;28;20871;-78
2022/09/20 13:36:53;;;;;;;1.80;1.17;;;11.40;99.90;;;;;;5071651;28;20456;-78
2022/09/20 13:39:29;;;;;;;1.30;1.20;;;11.50;99.90;;;;;;5077182;28;20433;-78
2022/09/20 13:42:01;;;;;;;1.10;1.00;;;11.50;99.90;;;;;;5077142;28;21016;-78
2022/09/20 13:44:29;;;;;;;2.30;1.40;;;11.60;99.90;;;;;;5075963;28;20926;-76
2022/09/20 13:46:56;;;;;;;1.40;1.30;;;11.60;99.90;;;;;;5076885;28;20849;-78
2022/09/20 13:49:24;;;;;;;1.93;1.73;;;11.70;99.90;;;;;;5077342;28;20833;-79
2022/09/20 13:51:52;;;;;;;1.70;1.53;;;11.90;99.90;;;;;;5078122;28;20468;-77
2022/09/20 13:54:25;;;;;;;1.20;1.10;;;12.10;99.90;;;;;;5082375;28;20850;-76
2022/09/20 13:56:52;;;;;;;2.70;1.30;;;12.30;99.90;;;;;;5076573;28;20889;-77
2022/09/20 13:59:19;;;;;;;1.40;1.27;;;12.40;99.90;;;;;;5075473;28;20818;-77
2022/09/20 14:01:50;;;;;;;1.63;1.47;;;12.60;99.90;;;;;;5075110;28;20461;-77